Time;durP1;ratioP1;P1;durP2;ratioP2;P2;SDS_P1;SDS_P2;PMS_P1;PMS_P2;Temp;Humidity;BMP_temperature;BMP_pressure;BME280_temperature;BME280_humidity;BME280_pressure;Samples;Min_cycle;Max_cycle;Signal;HPM_P1;HPM_P2
2021/07/08 00:01:56;;;;;;;6.57;2.17;;;;;;;15.72;90.29;101608.50;5078449;28;20182;-70
2021/07/08 00:04:21;;;;;;;4.43;2.40;;;;;;;15.70;90.77;101607.72;5096199;28;20162;-70
2021/07/08 00:06:46;;;;;;;7.63;2.00;;;;;;;15.71;91.32;101604.09;5061641;28;20177;-72
2021/07/08 00:09:12;;;;;;;4.70;2.10;;;;;;;15.65;90.96;101599.09;5096248;28;20504;-72
2021/07/08 00:11:38;;;;;;;4.80;2.40;;;;;;;15.67;91.77;101607.06;5061516;28;20284;-71
2021/07/08 00:14:04;;;;;;;3.07;1.90;;;;;;;15.59;92.03;101604.81;5078733;28;20232;-71
2021/07/08 00:16:29;;;;;;;3.17;2.03;;;;;;;15.56;91.63;101600.47;5078179;28;20174;-71
2021/07/08 00:18:55;;;;;;;4.77;2.50;;;;;;;15.19;93.93;101601.84;5077593;28;20243;-71
2021/07/08 00:21:21;;;;;;;5.73;2.90;;;;;;;15.25;95.10;101590.72;5077968;28;20542;-71
2021/07/08 00:23:47;;;;;;;5.90;2.90;;;;;;;15.40;94.65;101590.75;5077632;28;20208;-71
2021/07/08 00:26:12;;;;;;;4.30;2.60;;;;;;;15.49;94.60;101590.19;5077603;28;20166;-71
2021/07/08 00:28:37;;;;;;;8.47;3.07;;;;;;;15.57;94.32;101595.94;5077379;28;20288;-71
2021/07/08 00:31:03;;;;;;;8.07;2.90;;;;;;;15.49;93.72;101600.94;5077661;28;20178;-71
2021/07/08 00:33:28;;;;;;;6.17;2.97;;;;;;;15.42;94.73;101603.13;5060531;28;20186;-71
2021/07/08 00:35:54;;;;;;;10.70;3.50;;;;;;;15.41;94.66;101603.25;5077150;28;20216;-71
2021/07/08 00:38:19;;;;;;;5.90;3.20;;;;;;;15.40;95.34;101604.19;5077512;28;20614;-70
2021/07/08 00:40:44;;;;;;;7.70;2.80;;;;;;;15.37;95.71;101612.44;5095363;28;20539;-71
2021/07/08 00:43:10;;;;;;;5.70;2.97;;;;;;;15.30;96.47;101609.28;5060294;28;20661;-71
2021/07/08 00:45:35;;;;;;;7.10;3.10;;;;;;;15.28;96.04;101605.81;5095389;28;20170;-71
2021/07/08 00:48:01;;;;;;;4.83;3.10;;;;;;;15.15;96.88;101610.19;5095145;28;20166;-70
2021/07/08 00:50:32;;;;;;;5.40;3.03;;;;;;;15.20;97.64;101595.50;5094956;28;20190;-71
2021/07/08 00:52:57;;;;;;;3.73;3.33;;;;;;;15.23;97.93;101598.00;5077010;28;20257;-71
2021/07/08 00:55:23;;;;;;;8.67;3.63;;;;;;;15.30;97.78;101587.75;5076910;28;20608;-71
2021/07/08 00:57:54;;;;;;;9.13;3.80;;;;;;;15.28;97.27;101589.69;5076695;28;20166;-71
2021/07/08 01:00:34;;;;;;;4.67;3.47;;;;;;;15.24;97.49;101580.94;5060958;28;20186;-72
2021/07/08 01:03:00;;;;;;;8.17;4.00;;;;;;;15.31;97.15;101579.59;5095103;28;20162;-71
2021/07/08 01:05:31;;;;;;;9.30;4.27;;;;;;;15.27;97.21;101585.25;5076837;28;20166;-71
2021/07/08 01:07:57;;;;;;;8.30;3.97;;;;;;;15.26;97.22;101586.22;5094771;28;20338;-71
2021/07/08 01:10:23;;;;;;;5.83;3.80;;;;;;;15.23;97.29;101594.44;5076721;28;20218;-70
2021/07/08 01:12:48;;;;;;;6.63;4.10;;;;;;;15.20;97.22;101602.69;5094533;28;20170;-71
2021/07/08 01:15:14;;;;;;;13.77;5.03;;;;;;;15.22;97.66;101593.56;5076393;28;20193;-70
2021/07/08 01:17:42;;;;;;;8.53;4.23;;;;;;;15.25;97.69;101604.19;5094361;28;20162;-70
2021/07/08 01:20:08;;;;;;;12.20;4.10;;;;;;;15.25;97.34;101620.31;5076549;28;20685;-70
2021/07/08 01:22:33;;;;;;;11.77;4.40;;;;;;;15.27;97.23;101612.16;5076424;28;20188;-71
2021/07/08 01:24:59;;;;;;;11.13;4.00;;;;;;;15.25;97.79;101627.50;5076802;28;20171;-71
2021/07/08 01:27:24;;;;;;;9.10;4.40;;;;;;;15.30;97.54;101623.59;5076507;28;20277;-71
2021/07/08 01:29:49;;;;;;;4.73;3.90;;;;;;;15.36;97.47;101630.41;5076005;28;20685;-71
2021/07/08 01:32:15;;;;;;;5.13;3.80;;;;;;;15.39;97.14;101630.22;5076070;28;20719;-70
2021/07/08 01:34:40;;;;;;;8.67;4.10;;;;;;;15.36;96.86;101656.44;5075986;28;20183;-71
2021/07/08 01:37:05;;;;;;;6.00;3.80;;;;;;;15.35;96.82;101646.66;5094016;28;20220;-70
2021/07/08 01:39:31;;;;;;;7.70;4.23;;;;;;;15.35;96.99;101641.28;5075725;28;20580;-71
2021/07/08 01:41:56;;;;;;;14.00;4.30;;;;;;;15.38;97.22;101650.03;5094280;28;20177;-71
2021/07/08 01:44:21;;;;;;;7.57;5.20;;;;;;;15.46;96.68;101645.03;5094229;28;20243;-71
2021/07/08 01:46:47;;;;;;;4.77;3.87;;;;;;;15.43;96.41;101647.03;5059156;28;20174;-71
2021/07/08 01:49:12;;;;;;;10.37;5.00;;;;;;;15.40;97.11;101642.72;5093923;28;20194;-71
2021/07/08 01:51:38;;;;;;;7.63;4.17;;;;;;;15.36;97.33;101654.63;5093988;28;20206;-71
2021/07/08 01:54:08;;;;;;;7.50;4.70;;;;;;;15.34;97.33;101670.00;5094048;28;20292;-70
2021/07/08 01:56:33;;;;;;;9.17;4.57;;;;;;;15.29;97.39;101666.72;5076285;28;20166;-71
2021/07/08 01:58:58;;;;;;;16.43;5.10;;;;;;;15.22;97.51;101674.25;5076415;28;20205;-71
2021/07/08 02:01:24;;;;;;;11.40;5.20;;;;;;;14.99;98.71;101682.81;5093578;28;20626;-71
2021/07/08 02:03:49;;;;;;;14.40;4.80;;;;;;;15.11;98.96;101695.53;5075549;28;20202;-70
2021/07/08 02:06:15;;;;;;;9.87;4.60;;;;;;;15.12;98.83;101708.03;5094441;28;20519;-71
2021/07/08 02:08:41;;;;;;;8.10;3.93;;;;;;;15.11;98.67;101703.59;5075367;28;20551;-71
2021/07/08 02:11:07;;;;;;;9.40;4.50;;;;;;;15.04;98.47;101704.91;5093508;28;20559;-70
2021/07/08 02:13:34;;;;;;;11.53;4.30;;;;;;;15.02;98.63;101707.69;5075885;28;20174;-71
2021/07/08 02:16:04;;;;;;;10.03;4.70;;;;;;;14.97;98.72;101711.59;5075549;28;20239;-71
2021/07/08 02:18:29;;;;;;;6.20;4.33;;;;;;;14.92;99.29;101717.25;5074905;28;20547;-71
2021/07/08 02:20:54;;;;;;;11.40;5.10;;;;;;;14.94;100.00;101719.84;5058434;28;20215;-70
2021/07/08 02:23:20;;;;;;;10.60;5.10;;;;;;;14.98;100.00;101724.09;5093420;28;20208;-70
2021/07/08 02:25:46;;;;;;;11.50;5.07;;;;;;;14.97;100.00;101723.22;5060694;28;20198;-71
2021/07/08 02:28:11;;;;;;;11.63;5.00;;;;;;;15.00;99.83;101725.72;5074946;28;20177;-71
2021/07/08 02:30:37;;;;;;;12.77;5.00;;;;;;;14.96;100.00;101724.19;5075543;28;20201;-71
2021/07/08 02:33:02;;;;;;;9.97;5.07;;;;;;;14.99;100.00;101728.50;5058356;28;20605;-70
2021/07/08 02:35:28;;;;;;;11.03;5.60;;;;;;;14.99;99.96;101739.25;5093105;28;20585;-70
2021/07/08 02:37:54;;;;;;;9.43;4.80;;;;;;;14.98;99.86;101732.16;5058601;28;20173;-71
2021/07/08 02:40:23;;;;;;;11.13;4.97;;;;;;;15.01;99.96;101732.84;5075178;28;20235;-71
2021/07/08 02:42:51;;;;;;;11.07;4.90;;;;;;;15.07;99.83;101733.44;5075151;28;20550;-70
2021/07/08 02:45:20;;;;;;;11.70;5.30;;;;;;;15.10;99.24;101736.81;5058717;28;20178;-71
2021/07/08 02:47:46;;;;;;;13.73;5.47;;;;;;;15.10;99.03;101742.19;5075010;28;20227;-71
2021/07/08 02:50:11;;;;;;;13.27;5.40;;;;;;;15.08;99.21;101748.63;5074686;28;20206;-71
2021/07/08 02:52:37;;;;;;;8.97;5.13;;;;;;;15.13;99.92;101744.72;5075046;28;20179;-71
2021/07/08 02:55:04;;;;;;;14.73;5.57;;;;;;;15.11;100.00;101754.69;5075005;28;20171;-71
2021/07/08 02:57:30;;;;;;;8.03;5.33;;;;;;;15.10;99.74;101747.56;5058145;28;20558;-71
2021/07/08 02:59:55;;;;;;;11.83;5.27;;;;;;;15.08;99.95;101756.69;5093102;28;20186;-71
2021/07/08 03:02:20;;;;;;;10.67;5.10;;;;;;;15.12;99.03;101756.41;5075011;28;20184;-71
2021/07/08 03:04:47;;;;;;;7.40;5.50;;;;;;;15.17;99.13;101758.84;5058035;28;20178;-70
2021/07/08 03:07:13;;;;;;;12.47;5.03;;;;;;;15.20;99.16;101759.53;5077313;28;20289;-71
2021/07/08 03:09:38;;;;;;;9.30;5.10;;;;;;;15.18;99.07;101776.72;5093107;28;20293;-70
2021/07/08 03:12:04;;;;;;;10.77;5.27;;;;;;;15.10;98.93;101779.84;5092788;28;20692;-71
2021/07/08 03:14:29;;;;;;;6.27;4.47;;;;;;;15.16;98.38;101778.63;5092632;28;20186;-70
2021/07/08 03:16:54;;;;;;;9.47;5.60;;;;;;;15.23;98.51;101791.63;5075960;28;20171;-70
2021/07/08 03:19:20;;;;;;;15.67;5.87;;;;;;;15.27;98.76;101790.50;5074643;28;20198;-71
2021/07/08 03:21:45;;;;;;;14.30;5.97;;;;;;;15.36;98.37;101783.72;5095113;28;20173;-70
2021/07/08 03:24:10;;;;;;;12.73;4.90;;;;;;;15.37;97.40;101800.75;5095670;28;20174;-71
2021/07/08 03:26:35;;;;;;;10.33;5.17;;;;;;;15.35;96.88;101813.41;5094764;28;20174;-71
2021/07/08 03:29:01;;;;;;;11.93;4.47;;;;;;;15.28;96.99;101815.59;5092914;28;20217;-71
2021/07/08 03:31:27;;;;;;;10.33;4.87;;;;;;;15.18;98.12;101817.03;5076332;28;20208;-71
2021/07/08 03:33:52;;;;;;;8.90;4.80;;;;;;;15.21;97.96;101814.19;5096426;28;20174;-70
2021/07/08 03:36:17;;;;;;;13.60;6.13;;;;;;;15.26;97.50;101806.75;5096372;28;20270;-70
2021/07/08 03:38:42;;;;;;;12.73;4.90;;;;;;;15.27;97.58;101830.00;5096327;28;20244;-71
2021/07/08 03:41:08;;;;;;;9.27;5.00;;;;;;;15.32;97.26;101834.16;5096604;28;20224;-71
2021/07/08 03:43:33;;;;;;;10.07;4.93;;;;;;;15.30;97.64;101835.19;5078246;28;20174;-71
2021/07/08 03:45:58;;;;;;;17.20;5.00;;;;;;;15.48;96.66;101844.03;5078169;28;20688;-71
2021/07/08 03:48:24;;;;;;;8.60;4.53;;;;;;;15.65;96.36;101841.28;5096142;28;20550;-71
2021/07/08 03:50:49;;;;;;;15.10;5.10;;;;;;;15.66;97.02;101829.56;5078171;28;20678;-71
2021/07/08 03:53:14;;;;;;;14.47;4.40;;;;;;;15.72;96.50;101839.94;5078101;28;20646;-71
2021/07/08 03:55:40;;;;;;;10.60;4.80;;;;;;;15.67;96.57;101820.53;5077773;28;20221;-70
2021/07/08 03:58:05;;;;;;;11.37;5.43;;;;;;;15.61;96.81;101823.56;5096112;28;20201;-70
2021/07/08 04:00:32;;;;;;;16.53;5.40;;;;;;;15.61;96.93;101826.28;5095993;28;20182;-71
2021/07/08 04:02:59;;;;;;;9.20;5.13;;;;;;;15.50;97.02;101826.84;5077749;28;20206;-70
2021/07/08 04:05:24;;;;;;;7.00;4.87;;;;;;;15.56;97.23;101836.38;5061246;28;20239;-70
2021/07/08 04:07:50;;;;;;;13.17;5.73;;;;;;;15.60;96.25;101841.50;5081982;28;20170;-71
2021/07/08 04:10:15;;;;;;;11.30;5.23;;;;;;;15.50;97.29;101834.03;5070196;28;20206;-71
2021/07/08 04:12:41;;;;;;;12.03;5.40;;;;;;;15.53;97.17;101831.16;5098602;28;20185;-71
2021/07/08 04:15:06;;;;;;;12.23;4.70;;;;;;;15.62;97.32;101836.06;5095259;28;20654;-71
2021/07/08 04:17:32;;;;;;;11.77;5.30;;;;;;;15.63;96.68;101838.69;5084429;28;20303;-71
2021/07/08 04:19:57;;;;;;;11.70;5.00;;;;;;;15.66;96.46;101843.00;5078102;28;20182;-71
2021/07/08 04:22:24;;;;;;;6.43;4.50;;;;;;;15.71;95.99;101838.22;5095538;28;20170;-71
2021/07/08 04:24:49;;;;;;;10.57;4.97;;;;;;;15.70;95.78;101839.19;5077522;28;20174;-71
2021/07/08 04:27:14;;;;;;;13.47;5.03;;;;;;;15.68;96.16;101838.41;5077583;28;20177;-71
2021/07/08 04:29:39;;;;;;;6.33;4.37;;;;;;;15.86;96.02;101855.28;5128351;22;20228;-72
2021/07/08 04:32:05;;;;;;;7.87;4.33;;;;;;;16.10;94.79;101839.50;5102984;28;20653;-73
2021/07/08 04:34:30;;;;;;;8.40;4.50;;;;;;;16.33;92.86;101855.13;5124196;28;20190;-73
2021/07/08 04:36:56;;;;;;;6.30;3.90;;;;;;;16.52;91.71;101857.56;5124587;28;20188;-72
2021/07/08 04:39:21;;;;;;;11.37;3.63;;;;;;;16.61;90.82;101854.31;5126542;28;20173;-73
2021/07/08 04:41:47;;;;;;;10.43;3.77;;;;;;;16.69;89.74;101854.72;5127342;28;20177;-73
2021/07/08 04:44:13;;;;;;;11.57;3.77;;;;;;;16.72;89.56;101853.66;5125013;28;20169;-72
2021/07/08 04:46:38;;;;;;;7.27;4.07;;;;;;;16.80;89.80;101851.38;5125309;28;20184;-72
2021/07/08 04:49:03;;;;;;;5.27;3.00;;;;;;;16.95;89.50;101850.41;5100967;28;20189;-72
2021/07/08 04:51:29;;;;;;;8.13;3.43;;;;;;;17.01;88.42;101852.69;5098823;28;20557;-72
2021/07/08 04:53:54;;;;;;;7.47;3.33;;;;;;;16.94;88.84;101859.44;5098363;28;20174;-71
2021/07/08 04:56:19;;;;;;;7.73;3.60;;;;;;;16.92;88.56;101858.69;5081734;28;20178;-71
2021/07/08 04:58:45;;;;;;;8.67;3.60;;;;;;;17.07;88.22;101855.00;5116673;28;20169;-72
2021/07/08 05:01:10;;;;;;;11.63;4.23;;;;;;;17.06;88.47;101861.34;5098570;28;20169;-72
2021/07/08 05:03:35;;;;;;;5.97;3.20;;;;;;;17.14;87.31;101859.06;5083160;28;20222;-73
2021/07/08 05:06:01;;;;;;;7.60;3.20;;;;;;;17.11;88.01;101853.88;5104694;28;20170;-73
2021/07/08 05:08:27;;;;;;;18.70;4.03;;;;;;;17.12;88.31;101858.28;5097700;28;20553;-74
2021/07/08 05:10:52;;;;;;;11.77;3.57;;;;;;;17.12;88.18;101855.59;5079751;28;20196;-75
2021/07/08 05:13:17;;;;;;;9.43;3.33;;;;;;;17.15;88.29;101858.09;5115723;28;20182;-74
2021/07/08 05:15:43;;;;;;;8.87;3.40;;;;;;;17.18;87.70;101860.59;5096904;28;20201;-73
2021/07/08 05:18:08;;;;;;;11.70;3.47;;;;;;;17.19;88.42;101856.94;5097860;28;20172;-73
2021/07/08 05:20:33;;;;;;;7.87;3.83;;;;;;;17.17;88.60;101853.47;5097292;28;20193;-72
2021/07/08 05:23:01;;;;;;;7.80;3.33;;;;;;;17.21;88.54;101850.56;5099416;28;20177;-72
2021/07/08 05:25:27;;;;;;;8.50;3.43;;;;;;;17.32;87.83;101858.81;5100061;28;20218;-72
2021/07/08 05:27:52;;;;;;;13.77;3.03;;;;;;;17.48;87.24;101854.16;5099403;28;20169;-71
2021/07/08 05:30:18;;;;;;;5.10;3.07;;;;;;;17.58;86.02;101852.59;5099065;28;20213;-72
2021/07/08 05:32:43;;;;;;;8.10;3.60;;;;;;;17.56;87.29;101851.84;5116483;28;20195;-72
2021/07/08 05:35:09;;;;;;;7.93;3.40;;;;;;;17.68;86.12;101852.88;5080253;28;20169;-65
2021/07/08 05:37:34;;;;;;;7.13;3.63;;;;;;;17.96;85.17;101846.50;5114651;28;20526;-62
2021/07/08 05:39:59;;;;;;;12.80;3.47;;;;;;;18.16;84.59;101847.81;5114053;28;20189;-63
2021/07/08 05:42:25;;;;;;;8.63;3.50;;;;;;;18.18;83.23;101840.47;5114153;28;20542;-62
2021/07/08 05:44:50;;;;;;;9.03;3.70;;;;;;;18.31;83.21;101847.66;5114343;28;20169;-62
2021/07/08 05:47:16;;;;;;;8.43;3.23;;;;;;;18.47;82.96;101843.84;5114147;28;20205;-62
2021/07/08 05:49:41;;;;;;;11.53;3.30;;;;;;;18.67;81.00;101846.94;5114749;28;20196;-62
2021/07/08 05:52:07;;;;;;;12.13;3.13;;;;;;;18.87;81.36;101848.19;5096044;28;20185;-62
2021/07/08 05:54:32;;;;;;;17.47;3.70;;;;;;;18.93;80.31;101845.03;5113451;28;20177;-62
2021/07/08 05:56:57;;;;;;;8.83;2.83;;;;;;;18.94;80.42;101843.22;5114144;28;20178;-63
2021/07/08 05:59:25;;;;;;;9.57;2.63;;;;;;;19.03;80.44;101846.13;5114140;28;20557;-62
2021/07/08 06:01:50;;;;;;;6.40;2.70;;;;;;;19.20;79.53;101854.84;5115275;28;20189;-70
2021/07/08 06:04:16;;;;;;;12.77;3.07;;;;;;;19.36;79.05;101853.63;5096416;28;20657;-69
2021/07/08 06:06:41;;;;;;;12.23;3.23;;;;;;;19.54;77.79;101854.13;5096086;28;20165;-71
2021/07/08 06:09:06;;;;;;;12.33;2.60;;;;;;;19.63;76.73;101891.34;5095685;28;20197;-70
2021/07/08 06:11:31;;;;;;;11.37;2.80;;;;;;;19.40;78.36;101835.31;5096137;28;20661;-69
2021/07/08 06:13:57;;;;;;;9.80;2.60;;;;;;;19.71;76.65;101831.22;5113778;28;20181;-69
2021/07/08 06:16:22;;;;;;;6.70;2.70;;;;;;;19.98;74.82;101833.66;5113835;28;20173;-68
2021/07/08 06:18:47;;;;;;;4.03;2.37;;;;;;;20.42;74.24;101824.81;5113541;28;20534;-69
2021/07/08 06:21:14;;;;;;;8.90;2.00;;;;;;;20.76;72.89;101817.56;5113804;28;20163;-70
2021/07/08 06:23:40;;;;;;;6.67;2.50;;;;;;;21.02;72.40;101829.03;5095573;28;20165;-69
2021/07/08 06:26:05;;;;;;;8.27;2.10;;;;;;;20.35;75.65;101812.69;5095657;28;20180;-70
2021/07/08 06:28:31;;;;;;;9.60;2.10;;;;;;;20.25;75.19;101815.25;5096282;28;20173;-69
2021/07/08 06:30:56;;;;;;;10.27;2.33;;;;;;;20.29;75.20;101816.75;5114199;28;20193;-71
2021/07/08 06:33:21;;;;;;;14.63;2.57;;;;;;;20.14;77.06;101811.66;5114540;28;20174;-70
2021/07/08 06:35:48;;;;;;;6.07;1.80;;;;;;;20.60;74.43;101817.94;5096736;28;20178;-70
2021/07/08 06:38:13;;;;;;;4.27;1.70;;;;;;;20.86;73.91;101812.28;5114854;28;20182;-69
2021/07/08 06:40:38;;;;;;;6.10;1.97;;;;;;;21.17;73.24;101813.34;5114303;28;20185;-69
2021/07/08 06:43:03;;;;;;;4.80;1.80;;;;;;;21.08;72.60;101804.09;5114586;28;20241;-72
2021/07/08 06:45:30;;;;;;;4.47;1.57;;;;;;;21.37;71.79;101807.16;5095971;28;20698;-70
2021/07/08 06:48:02;;;;;;;2.40;1.43;;;;;;;21.61;70.95;101804.28;5095843;28;20166;-70
2021/07/08 06:50:27;;;;;;;7.00;2.10;;;;;;;21.15;72.42;101799.03;5113727;28;20252;-69
2021/07/08 06:52:52;;;;;;;6.40;1.77;;;;;;;21.17;73.51;101797.91;5095603;28;20657;-70
2021/07/08 06:55:18;;;;;;;6.27;1.77;;;;;;;21.06;74.14;101795.22;5114028;28;20195;-69
2021/07/08 06:57:52;;;;;;;4.93;1.97;;;;;;;21.23;73.70;101796.59;5095940;28;20197;-69
2021/07/08 07:00:29;;;;;;;5.37;1.67;;;;;;;21.70;71.53;101900.44;5114084;28;20188;-71
2021/07/08 07:02:58;;;;;;;3.60;1.80;;;;;;;21.52;71.22;101802.28;5113691;28;20250;-69
2021/07/08 07:05:24;;;;;;;2.30;1.77;;;;;;;21.37;72.37;101788.16;5115587;28;20173;-70
2021/07/08 07:07:51;;;;;;;3.77;1.60;;;;;;;21.35;72.05;101783.84;5119930;28;20193;-70
2021/07/08 07:10:16;;;;;;;3.50;2.00;;;;;;;21.13;69.28;101801.00;5117950;28;20200;-70
2021/07/08 07:12:46;;;;;;;3.77;1.80;;;;;;;21.35;69.15;101802.84;5117474;28;20173;-68
2021/07/08 07:15:16;;;;;;;5.40;1.73;;;;;;;21.16;69.46;101792.59;5082130;28;20162;-68
2021/07/08 07:17:42;;;;;;;4.43;1.53;;;;;;;21.25;68.60;101796.47;5098913;28;20173;-69
2021/07/08 07:20:09;;;;;;;3.83;1.40;;;;;;;21.31;69.77;101799.53;5081863;28;20185;-69
2021/07/08 07:22:36;;;;;;;8.23;1.83;;;;;;;21.03;70.99;101784.63;5098906;28;20522;-70
2021/07/08 07:25:02;;;;;;;12.60;1.43;;;;;;;21.58;69.09;101790.94;5117019;28;20537;-69
2021/07/08 07:27:28;;;;;;;1.50;1.40;;;;;;;21.71;68.17;101785.31;5117564;28;20760;-69
2021/07/08 07:29:53;;;;;;;3.23;1.50;;;;;;;21.94;67.78;101789.69;5117027;28;20210;-69
2021/07/08 07:32:18;;;;;;;3.70;1.63;;;;;;;21.93;67.82;101792.50;5116811;28;20169;-70
2021/07/08 07:34:44;;;;;;;3.03;1.73;;;;;;;21.98;67.10;101793.84;5099060;28;20215;-70
2021/07/08 07:37:09;;;;;;;2.60;1.60;;;;;;;22.15;67.49;101790.56;5098866;28;20177;-70
2021/07/08 07:39:35;;;;;;;2.07;1.50;;;;;;;22.23;67.63;101792.59;5098605;28;20197;-69
2021/07/08 07:42:00;;;;;;;8.63;2.07;;;;;;;21.87;68.38;101788.44;5116658;28;20177;-70
2021/07/08 07:44:25;;;;;;;3.20;1.40;;;;;;;22.39;68.11;101803.03;5117174;28;20267;-69
2021/07/08 07:46:51;;;;;;;7.07;1.70;;;;;;;22.31;67.83;101795.53;5116734;28;20170;-70
2021/07/08 07:49:16;;;;;;;2.47;1.53;;;;;;;22.38;66.72;101790.41;5116885;28;20673;-70
2021/07/08 07:51:41;;;;;;;5.90;1.70;;;;;;;22.33;66.58;101799.00;5098217;28;20208;-70
2021/07/08 07:54:07;;;;;;;4.60;1.57;;;;;;;21.68;69.67;101793.75;5098162;28;20184;-70
2021/07/08 07:56:32;;;;;;;2.33;1.40;;;;;;;21.78;69.45;101787.38;5098324;28;20170;-67
2021/07/08 07:58:57;;;;;;;2.87;1.80;;;;;;;21.68;69.67;101782.88;5116285;28;20201;-67
2021/07/08 08:01:23;;;;;;;3.27;2.00;;;;;;;21.26;70.44;101774.63;5097971;28;20212;-68
2021/07/08 08:03:50;;;;;;;7.23;1.80;;;;;;;21.51;67.94;101779.72;5116088;28;20174;-68
2021/07/08 08:08:59;;;;;;;2.37;1.57;;;;;;;22.20;65.00;101775.69;5116549;28;20192;-69
2021/07/08 08:11:24;;;;;;;2.50;1.70;;;;;;;22.16;65.16;101775.09;5097844;28;20546;-68
2021/07/08 08:13:50;;;;;;;2.50;1.70;;;;;;;22.17;65.48;101775.97;5097856;28;20181;-68
2021/07/08 08:16:15;;;;;;;4.40;1.70;;;;;;;22.11;65.70;101783.66;5097490;28;20605;-68
2021/07/08 08:18:40;;;;;;;5.33;1.53;;;;;;;22.58;63.79;101791.38;5115662;28;20207;-68
2021/07/08 08:21:06;;;;;;;3.07;1.77;;;;;;;22.78;62.61;101794.06;5097998;28;20182;-68
2021/07/08 08:23:31;;;;;;;3.93;1.53;;;;;;;22.91;62.98;101791.13;5080823;28;20205;-68
2021/07/08 08:25:56;;;;;;;4.67;1.87;;;;;;;22.98;62.52;101780.53;5116114;28;20174;-68
2021/07/08 08:28:23;;;;;;;6.57;1.93;;;;;;;22.57;63.48;101771.47;5097956;28;20180;-68
2021/07/08 08:30:48;;;;;;;4.33;1.80;;;;;;;22.73;63.31;101776.41;5097507;28;20201;-69
2021/07/08 08:33:14;;;;;;;2.53;1.80;;;;;;;22.74;63.48;101770.84;5115988;28;20184;-68
2021/07/08 08:35:40;;;;;;;4.00;1.73;;;;;;;22.98;62.88;101783.25;5097775;28;20218;-69
2021/07/08 08:38:05;;;;;;;2.97;1.70;;;;;;;23.15;63.03;101777.16;5098928;28;20193;-69
2021/07/08 08:40:31;;;;;;;4.27;1.60;;;;;;;22.52;63.82;101773.72;5080015;28;20570;-69
2021/07/08 08:42:56;;;;;;;2.90;1.83;;;;;;;22.29;64.64;101778.47;5115585;28;20584;-69
2021/07/08 08:45:23;;;;;;;2.90;1.60;;;;;;;22.20;63.75;101770.25;5115833;28;20257;-70
2021/07/08 08:47:53;;;;;;;12.70;5.10;;;;;;;22.34;63.12;101776.22;5097089;28;20180;-68
2021/07/08 08:50:18;;;;;;;3.10;1.77;;;;;;;22.39;63.66;101773.97;5080651;28;20197;-68
2021/07/08 08:52:45;;;;;;;4.83;1.67;;;;;;;22.80;61.49;101779.44;5097348;28;20641;-68
2021/07/08 08:55:10;;;;;;;2.77;1.50;;;;;;;23.48;60.23;101802.31;5080471;28;20189;-68
2021/07/08 08:57:36;;;;;;;2.47;1.60;;;;;;;22.96;61.25;101799.72;5097965;28;20633;-68
2021/07/08 09:00:01;;;;;;;3.80;1.70;;;;;;;22.38;62.57;101809.47;5115213;28;20243;-69
2021/07/08 09:02:26;;;;;;;3.73;1.70;;;;;;;22.37;63.33;101807.72;5115433;28;20165;-69
2021/07/08 09:04:51;;;;;;;2.43;1.60;;;;;;;23.43;61.37;101821.81;5096957;28;20174;-69
2021/07/08 09:07:34;;;;;;;6.63;1.60;;;;;;;23.19;60.90;101808.56;5115422;28;20180;-69
2021/07/08 09:10:10;;;;;;;6.07;1.90;;;;;;;22.36;62.28;101796.00;5097642;28;20221;-69
2021/07/08 09:12:36;;;;;;;3.07;1.73;;;;;;;22.05;62.81;101789.63;5097393;28;20165;-69
2021/07/08 09:15:15;;;;;;;3.10;1.37;;;;;;;22.73;62.01;101796.31;5096535;28;20235;-68
2021/07/08 09:17:42;;;;;;;10.73;1.60;;;;;;;23.27;59.10;101808.69;5114692;28;20222;-68
2021/07/08 09:20:09;;;;;;;8.47;1.50;;;;;;;23.69;57.97;101813.97;5096737;28;20185;-69
2021/07/08 09:22:35;;;;;;;5.13;1.30;;;;;;;24.24;56.86;101825.13;5079550;28;20181;-69
2021/07/08 09:25:21;;;;;;;3.93;1.10;;;;;;;23.47;53.74;101817.78;5096654;28;20583;-69
2021/07/08 09:28:08;;;;;;;2.13;1.00;;;;;;;24.49;51.17;101816.34;5114199;28;20212;-68
2021/07/08 09:30:34;;;;;;;3.17;1.17;;;;;;;24.12;53.25;101760.81;5096050;28;20219;-69
2021/07/08 09:32:59;;;;;;;3.37;1.20;;;;;;;23.96;53.20;101751.41;5096638;28;20689;-69
2021/07/08 09:35:40;;;;;;;3.30;1.20;;;;;;;23.92;52.78;101754.56;5096305;28;20175;-68
2021/07/08 09:38:14;;;;;;;3.90;1.40;;;;;;;23.48;55.83;101750.53;5096919;28;20240;-69
2021/07/08 09:40:40;;;;;;;2.50;1.00;;;;;;;23.55;55.20;101721.72;5096028;28;20193;-68
2021/07/08 09:43:06;;;;;;;0.90;0.80;;;;;;;23.64;51.59;101721.72;5096238;28;20176;-68
2021/07/08 09:45:43;;;;;;;2.70;1.00;;;;;;;;;;5096274;28;20182;-68
2021/07/08 09:48:10;;;;;;;1.50;0.93;;;;;;;24.03;51.16;101729.84;5114592;28;20157;-69
2021/07/08 09:50:37;;;;;;;3.33;0.93;;;;;;;24.14;50.90;101735.13;5113990;28;20259;-69
2021/07/08 09:53:10;;;;;;;1.10;0.80;;;;;;;24.74;49.14;101746.59;5114455;28;20173;-69
2021/07/08 09:55:56;;;;;;;2.77;0.80;;;;;;;24.32;47.38;101738.00;5096286;28;20173;-75
2021/07/08 09:58:22;;;;;;;2.07;0.60;;;;;;;23.25;48.72;101749.94;5114358;28;20164;-71
2021/07/08 10:00:47;;;;;;;1.73;0.70;;;;;;;22.99;47.84;101738.69;5095647;28;20185;-70
2021/07/08 10:03:13;;;;;;;2.43;0.97;;;;;;;22.99;49.83;101747.72;5095605;28;20173;-70
2021/07/08 10:05:38;;;;;;;1.10;1.00;;;;;;;23.59;48.91;101745.84;5096067;28;20165;-71
2021/07/08 10:08:06;;;;;;;5.40;0.83;;;;;;;23.53;43.66;101745.53;5096161;28;20638;-71
2021/07/08 10:10:32;;;;;;;2.90;0.60;;;;;;;24.05;44.66;101746.94;5078357;28;20233;-71
2021/07/08 10:12:57;;;;;;;3.03;0.90;;;;;;;24.62;44.02;101742.34;5113656;28;20669;-71
2021/07/08 10:15:23;;;;;;;1.43;0.80;;;;;;;24.77;43.81;101731.78;5095351;28;20218;-72
2021/07/08 10:17:48;;;;;;;3.07;1.33;;;;;;;24.04;46.58;101726.13;5095267;28;20178;-70
2021/07/08 10:20:15;;;;;;;2.23;0.53;;;;;;;23.84;44.75;101727.19;5095341;28;20685;-70
2021/07/08 10:22:40;;;;;;;1.07;0.60;;;;;;;24.09;45.69;101736.59;5095178;28;20199;-69
2021/07/08 10:25:08;;;;;;;1.77;0.67;;;;;;;24.20;45.16;101730.97;5113455;28;20234;-70
2021/07/08 10:27:37;;;;;;;7.10;0.80;;;;;;;24.17;45.30;101739.47;5095317;28;20257;-70
2021/07/08 10:30:03;;;;;;;2.50;1.00;;;;;;;24.98;44.01;101740.59;5135987;22;20252;-72
2021/07/08 10:32:30;;;;;;;2.17;0.63;;;;;;;24.72;44.83;101724.03;5095055;28;20539;-73
2021/07/08 10:34:55;;;;;;;8.30;0.90;;;;;;;24.68;45.99;101725.34;5095146;28;20176;-73
2021/07/08 10:37:36;;;;;;;3.53;0.90;;;;;;;24.60;47.27;101720.66;5095231;28;20173;-72
2021/07/08 10:40:02;;;;;;;4.27;1.00;;;;;;;24.07;49.89;101700.41;5095381;28;20630;-74
2021/07/08 10:42:42;;;;;;;2.00;1.10;;;;;;;24.99;46.08;101722.34;5113350;28;20173;-72
2021/07/08 10:45:08;;;;;;;3.97;1.80;;;;;;;24.43;48.26;101715.97;5113265;28;20541;-72
2021/07/08 10:47:38;;;;;;;4.67;1.60;;;;;;;24.39;49.03;101721.88;5113249;28;20629;-72
2021/07/08 10:50:08;;;;;;;4.93;1.70;;;;;;;24.30;49.46;101715.47;5095420;28;20197;-72
2021/07/08 10:52:45;;;;;;;3.37;0.80;;;;;;;24.86;48.75;101730.84;5078231;28;20225;-73
2021/07/08 10:55:11;;;;;;;4.53;1.10;;;;;;;25.04;48.86;101730.94;5095088;28;20195;-72
2021/07/08 10:57:38;;;;;;;1.27;1.03;;;;;;;24.84;47.37;101724.69;5078503;28;20173;-72
2021/07/08 11:00:06;;;;;;;5.13;1.20;;;;;;;25.12;47.26;101731.88;5095163;28;20185;-72
2021/07/08 11:02:50;;;;;;;2.10;1.00;;;;;;;25.01;48.78;101734.84;5095278;28;20248;-73
2021/07/08 11:05:55;;;;;;;8.07;0.80;;;;;;;24.46;50.22;101715.69;5078756;28;20649;-73
2021/07/08 11:08:45;;;;;;;9.87;1.07;;;;;;;23.97;50.80;101725.84;5011155;28;20351;-73
2021/07/08 11:11:22;;;;;;;3.00;0.80;;;;;;;23.15;50.41;101714.53;5010716;28;20217;-72
2021/07/08 11:13:52;;;;;;;1.03;0.70;;;;;;;24.00;48.42;101727.41;5066405;28;20243;-73
2021/07/08 11:16:40;;;;;;;3.07;0.87;;;;;;;23.86;49.45;101734.19;5095133;28;20166;-73
2021/07/08 11:19:06;;;;;;;0.90;0.80;;;;;;;24.20;46.84;101733.72;5094981;28;20182;-72
2021/07/08 11:21:49;;;;;;;3.60;0.93;;;;;;;24.34;47.32;101730.53;5095258;28;20534;-72
2021/07/08 11:24:19;;;;;;;1.80;0.70;;;;;;;23.83;49.13;101730.91;5113279;28;20181;-72
2021/07/08 11:27:02;;;;;;;3.73;0.90;;;;;;;24.70;47.25;101777.94;5113188;28;20177;-72